sensor_id;sensor_type;location;lat;lon;timestamp;P1;durP1;ratioP1;P2;durP2;ratioP2
16737;SDS011;17906;47.684;10.806;2023-04-03T00:00:29;14.73;;;7.10;;
16737;SDS011;17906;47.684;10.806;2023-04-03T00:02:56;12.93;;;6.20;;
16737;SDS011;17906;47.684;10.806;2023-04-03T00:05:23;11.40;;;6.13;;
16737;SDS011;17906;47.684;10.806;2023-04-03T00:07:49;14.43;;;7.20;;
16737;SDS011;17906;47.684;10.806;2023-04-03T00:10:16;14.53;;;7.50;;
16737;SDS011;17906;47.684;10.806;2023-04-03T00:12:43;15.23;;;6.87;;
16737;SDS011;17906;47.684;10.806;2023-04-03T00:15:10;13.07;;;7.17;;
16737;SDS011;17906;47.684;10.806;2023-04-03T00:17:38;14.63;;;7.10;;
16737;SDS011;17906;47.684;10.806;2023-04-03T00:20:05;16.03;;;7.43;;
16737;SDS011;17906;47.684;10.806;2023-04-03T00:22:32;14.53;;;7.47;;
16737;SDS011;17906;47.684;10.806;2023-04-03T00:24:59;13.23;;;7.20;;
16737;SDS011;17906;47.684;10.806;2023-04-03T00:27:25;16.10;;;7.77;;
16737;SDS011;17906;47.684;10.806;2023-04-03T00:29:52;12.33;;;6.97;;
16737;SDS011;17906;47.684;10.806;2023-04-03T00:32:19;13.97;;;7.63;;
16737;SDS011;17906;47.684;10.806;2023-04-03T00:34:46;15.60;;;7.17;;
16737;SDS011;17906;47.684;10.806;2023-04-03T00:37:13;13.87;;;6.97;;
16737;SDS011;17906;47.684;10.806;2023-04-03T00:39:39;13.77;;;6.80;;
16737;SDS011;17906;47.684;10.806;2023-04-03T00:42:06;14.90;;;7.47;;
16737;SDS011;17906;47.684;10.806;2023-04-03T00:47:37;11.67;;;6.70;;
16737;SDS011;17906;47.684;10.806;2023-04-03T00:50:07;13.00;;;6.80;;
16737;SDS011;17906;47.684;10.806;2023-04-03T00:52:34;13.77;;;6.80;;
16737;SDS011;17906;47.684;10.806;2023-04-03T00:55:04;13.50;;;6.33;;
16737;SDS011;17906;47.684;10.806;2023-04-03T00:57:33;12.67;;;6.83;;
16737;SDS011;17906;47.684;10.806;2023-04-03T01:00:02;13.03;;;7.27;;
16737;SDS011;17906;47.684;10.806;2023-04-03T01:02:32;14.50;;;6.80;;
16737;SDS011;17906;47.684;10.806;2023-04-03T01:04:59;10.67;;;5.90;;
16737;SDS011;17906;47.684;10.806;2023-04-03T01:07:27;13.37;;;6.83;;
16737;SDS011;17906;47.684;10.806;2023-04-03T01:09:56;11.40;;;6.50;;
16737;SDS011;17906;47.684;10.806;2023-04-03T01:12:25;14.13;;;6.60;;
16737;SDS011;17906;47.684;10.806;2023-04-03T01:14:54;13.43;;;6.77;;
16737;SDS011;17906;47.684;10.806;2023-04-03T01:17:29;12.53;;;6.70;;
16737;SDS011;17906;47.684;10.806;2023-04-03T01:20:02;14.43;;;7.03;;
16737;SDS011;17906;47.684;10.806;2023-04-03T01:22:59;15.90;;;7.13;;
16737;SDS011;17906;47.684;10.806;2023-04-03T01:25:39;14.00;;;6.97;;
16737;SDS011;17906;47.684;10.806;2023-04-03T01:28:08;14.00;;;7.20;;
16737;SDS011;17906;47.684;10.806;2023-04-03T01:30:36;16.30;;;7.93;;
16737;SDS011;17906;47.684;10.806;2023-04-03T01:33:12;15.67;;;7.13;;
16737;SDS011;17906;47.684;10.806;2023-04-03T01:35:39;12.20;;;6.77;;
16737;SDS011;17906;47.684;10.806;2023-04-03T01:38:05;13.27;;;6.70;;
16737;SDS011;17906;47.684;10.806;2023-04-03T01:40:32;13.50;;;7.30;;
16737;SDS011;17906;47.684;10.806;2023-04-03T01:42:59;16.50;;;6.97;;
16737;SDS011;17906;47.684;10.806;2023-04-03T01:45:26;12.80;;;6.37;;
16737;SDS011;17906;47.684;10.806;2023-04-03T01:47:52;14.47;;;6.73;;
16737;SDS011;17906;47.684;10.806;2023-04-03T01:50:20;14.60;;;7.37;;
16737;SDS011;17906;47.684;10.806;2023-04-03T01:52:47;12.80;;;6.67;;
16737;SDS011;17906;47.684;10.806;2023-04-03T01:55:13;12.93;;;6.90;;
16737;SDS011;17906;47.684;10.806;2023-04-03T01:57:40;12.63;;;6.37;;
16737;SDS011;17906;47.684;10.806;2023-04-03T02:00:07;13.13;;;6.00;;
16737;SDS011;17906;47.684;10.806;2023-04-03T02:02:34;11.80;;;6.07;;
16737;SDS011;17906;47.684;10.806;2023-04-03T02:05:01;11.27;;;6.17;;
16737;SDS011;17906;47.684;10.806;2023-04-03T02:07:29;13.13;;;6.20;;
16737;SDS011;17906;47.684;10.806;2023-04-03T02:09:56;12.00;;;5.97;;
16737;SDS011;17906;47.684;10.806;2023-04-03T02:12:22;14.13;;;6.47;;
16737;SDS011;17906;47.684;10.806;2023-04-03T02:14:49;12.07;;;6.17;;
16737;SDS011;17906;47.684;10.806;2023-04-03T02:17:16;12.17;;;5.93;;
16737;SDS011;17906;47.684;10.806;2023-04-03T02:19:42;13.30;;;6.50;;
16737;SDS011;17906;47.684;10.806;2023-04-03T02:22:09;11.27;;;5.87;;
16737;SDS011;17906;47.684;10.806;2023-04-03T02:24:37;13.53;;;5.87;;
16737;SDS011;17906;47.684;10.806;2023-04-03T02:27:05;12.33;;;6.50;;
16737;SDS011;17906;47.684;10.806;2023-04-03T02:29:32;13.93;;;6.50;;
16737;SDS011;17906;47.684;10.806;2023-04-03T02:31:58;12.10;;;5.67;;
16737;SDS011;17906;47.684;10.806;2023-04-03T02:34:25;10.27;;;5.53;;
16737;SDS011;17906;47.684;10.806;2023-04-03T02:36:51;11.63;;;6.27;;
16737;SDS011;17906;47.684;10.806;2023-04-03T02:39:18;13.13;;;5.37;;
16737;SDS011;17906;47.684;10.806;2023-04-03T02:41:46;10.87;;;5.57;;
16737;SDS011;17906;47.684;10.806;2023-04-03T02:44:13;11.93;;;6.00;;
16737;SDS011;17906;47.684;10.806;2023-04-03T02:46:40;10.30;;;5.33;;
16737;SDS011;17906;47.684;10.806;2023-04-03T02:49:07;12.43;;;5.77;;
16737;SDS011;17906;47.684;10.806;2023-04-03T02:51:34;10.30;;;5.40;;
16737;SDS011;17906;47.684;10.806;2023-04-03T02:54:00;10.53;;;5.70;;
16737;SDS011;17906;47.684;10.806;2023-04-03T02:56:27;11.70;;;5.97;;
16737;SDS011;17906;47.684;10.806;2023-04-03T02:58:56;10.10;;;5.50;;
16737;SDS011;17906;47.684;10.806;2023-04-03T03:01:22;12.10;;;6.10;;
16737;SDS011;17906;47.684;10.806;2023-04-03T03:03:49;11.57;;;6.20;;
16737;SDS011;17906;47.684;10.806;2023-04-03T03:06:16;12.80;;;6.27;;
16737;SDS011;17906;47.684;10.806;2023-04-03T03:08:43;11.63;;;5.87;;
16737;SDS011;17906;47.684;10.806;2023-04-03T03:11:10;12.20;;;6.50;;
16737;SDS011;17906;47.684;10.806;2023-04-03T03:13:37;12.90;;;6.63;;
16737;SDS011;17906;47.684;10.806;2023-04-03T03:16:06;12.40;;;6.30;;
16737;SDS011;17906;47.684;10.806;2023-04-03T03:18:33;12.83;;;6.20;;
16737;SDS011;17906;47.684;10.806;2023-04-03T03:21:01;13.87;;;6.57;;
16737;SDS011;17906;47.684;10.806;2023-04-03T03:23:30;13.83;;;6.57;;
16737;SDS011;17906;47.684;10.806;2023-04-03T03:25:57;13.77;;;6.43;;
16737;SDS011;17906;47.684;10.806;2023-04-03T03:28:25;13.10;;;6.33;;
16737;SDS011;17906;47.684;10.806;2023-04-03T03:30:53;17.03;;;6.63;;
16737;SDS011;17906;47.684;10.806;2023-04-03T03:33:21;13.43;;;6.40;;
16737;SDS011;17906;47.684;10.806;2023-04-03T03:35:47;12.47;;;6.43;;
16737;SDS011;17906;47.684;10.806;2023-04-03T03:38:14;13.70;;;6.77;;
16737;SDS011;17906;47.684;10.806;2023-04-03T03:40:40;13.57;;;6.73;;
16737;SDS011;17906;47.684;10.806;2023-04-03T03:43:07;15.10;;;7.17;;
16737;SDS011;17906;47.684;10.806;2023-04-03T03:45:34;12.13;;;7.07;;
16737;SDS011;17906;47.684;10.806;2023-04-03T03:48:00;13.50;;;6.40;;
16737;SDS011;17906;47.684;10.806;2023-04-03T03:50:28;13.43;;;6.17;;
16737;SDS011;17906;47.684;10.806;2023-04-03T03:52:55;12.93;;;6.93;;
16737;SDS011;17906;47.684;10.806;2023-04-03T03:55:21;14.03;;;6.30;;
16737;SDS011;17906;47.684;10.806;2023-04-03T03:57:48;11.93;;;6.13;;
16737;SDS011;17906;47.684;10.806;2023-04-03T04:00:15;13.03;;;6.10;;
16737;SDS011;17906;47.684;10.806;2023-04-03T04:02:41;10.07;;;5.83;;
16737;SDS011;17906;47.684;10.806;2023-04-03T04:05:09;12.73;;;5.90;;
16737;SDS011;17906;47.684;10.806;2023-04-03T04:07:37;10.10;;;5.50;;
16737;SDS011;17906;47.684;10.806;2023-04-03T04:10:04;14.50;;;6.90;;
16737;SDS011;17906;47.684;10.806;2023-04-03T04:12:31;12.43;;;5.60;;
16737;SDS011;17906;47.684;10.806;2023-04-03T04:14:58;12.27;;;5.40;;
16737;SDS011;17906;47.684;10.806;2023-04-03T04:17:24;12.80;;;6.40;;
16737;SDS011;17906;47.684;10.806;2023-04-03T04:19:50;10.10;;;5.50;;
16737;SDS011;17906;47.684;10.806;2023-04-03T04:22:17;10.10;;;5.40;;
16737;SDS011;17906;47.684;10.806;2023-04-03T04:24:45;9.27;;;5.07;;
16737;SDS011;17906;47.684;10.806;2023-04-03T04:27:12;9.50;;;5.20;;
16737;SDS011;17906;47.684;10.806;2023-04-03T04:29:38;9.17;;;4.97;;
16737;SDS011;17906;47.684;10.806;2023-04-03T04:32:05;10.00;;;4.40;;
16737;SDS011;17906;47.684;10.806;2023-04-03T04:34:31;14.67;;;7.33;;
16737;SDS011;17906;47.684;10.806;2023-04-03T04:36:58;9.80;;;4.43;;
16737;SDS011;17906;47.684;10.806;2023-04-03T04:39:25;11.07;;;5.23;;
16737;SDS011;17906;47.684;10.806;2023-04-03T04:41:53;10.97;;;5.20;;
16737;SDS011;17906;47.684;10.806;2023-04-03T04:44:19;9.70;;;5.00;;
16737;SDS011;17906;47.684;10.806;2023-04-03T04:46:46;11.50;;;5.37;;
16737;SDS011;17906;47.684;10.806;2023-04-03T04:49:12;10.80;;;5.03;;
16737;SDS011;17906;47.684;10.806;2023-04-03T04:51:39;10.33;;;4.93;;
16737;SDS011;17906;47.684;10.806;2023-04-03T04:54:05;8.77;;;4.87;;
16737;SDS011;17906;47.684;10.806;2023-04-03T04:56:32;11.27;;;5.70;;
16737;SDS011;17906;47.684;10.806;2023-04-03T04:59:00;9.67;;;4.87;;
16737;SDS011;17906;47.684;10.806;2023-04-03T05:01:27;12.20;;;6.13;;
16737;SDS011;17906;47.684;10.806;2023-04-03T05:03:53;11.03;;;6.00;;
16737;SDS011;17906;47.684;10.806;2023-04-03T05:06:20;16.30;;;8.57;;
16737;SDS011;17906;47.684;10.806;2023-04-03T05:08:47;13.90;;;6.97;;
16737;SDS011;17906;47.684;10.806;2023-04-03T05:11:13;13.73;;;7.27;;
16737;SDS011;17906;47.684;10.806;2023-04-03T05:13:40;12.93;;;6.10;;
16737;SDS011;17906;47.684;10.806;2023-04-03T05:16:08;11.60;;;6.03;;
16737;SDS011;17906;47.684;10.806;2023-04-03T05:18:35;10.07;;;5.20;;
16737;SDS011;17906;47.684;10.806;2023-04-03T05:21:01;8.63;;;4.93;;
16737;SDS011;17906;47.684;10.806;2023-04-03T05:23:28;10.27;;;4.97;;
16737;SDS011;17906;47.684;10.806;2023-04-03T05:25:55;9.60;;;5.00;;
16737;SDS011;17906;47.684;10.806;2023-04-03T05:28:21;8.93;;;4.97;;
16737;SDS011;17906;47.684;10.806;2023-04-03T05:30:52;9.73;;;4.97;;
16737;SDS011;17906;47.684;10.806;2023-04-03T05:33:20;14.23;;;5.60;;
16737;SDS011;17906;47.684;10.806;2023-04-03T05:35:47;10.43;;;5.17;;
16737;SDS011;17906;47.684;10.806;2023-04-03T05:38:14;10.03;;;4.90;;
16737;SDS011;17906;47.684;10.806;2023-04-03T05:40:41;7.13;;;4.07;;
16737;SDS011;17906;47.684;10.806;2023-04-03T05:43:08;9.03;;;4.50;;
16737;SDS011;17906;47.684;10.806;2023-04-03T05:45:35;11.63;;;5.93;;
16737;SDS011;17906;47.684;10.806;2023-04-03T05:48:01;11.73;;;5.93;;
16737;SDS011;17906;47.684;10.806;2023-04-03T05:50:29;12.17;;;5.87;;
16737;SDS011;17906;47.684;10.806;2023-04-03T05:52:57;10.17;;;5.40;;
16737;SDS011;17906;47.684;10.806;2023-04-03T05:55:25;16.43;;;6.77;;
16737;SDS011;17906;47.684;10.806;2023-04-03T05:57:51;14.03;;;6.20;;
16737;SDS011;17906;47.684;10.806;2023-04-03T06:00:18;9.20;;;5.03;;
16737;SDS011;17906;47.684;10.806;2023-04-03T06:02:46;13.13;;;6.00;;
16737;SDS011;17906;47.684;10.806;2023-04-03T06:05:12;11.83;;;5.70;;
16737;SDS011;17906;47.684;10.806;2023-04-03T06:07:40;11.77;;;5.43;;
16737;SDS011;17906;47.684;10.806;2023-04-03T06:10:07;12.53;;;5.93;;
16737;SDS011;17906;47.684;10.806;2023-04-03T06:12:35;14.77;;;6.03;;
16737;SDS011;17906;47.684;10.806;2023-04-03T06:15:01;13.43;;;6.07;;
16737;SDS011;17906;47.684;10.806;2023-04-03T06:17:28;13.23;;;5.80;;
16737;SDS011;17906;47.684;10.806;2023-04-03T06:19:55;13.43;;;6.33;;
16737;SDS011;17906;47.684;10.806;2023-04-03T06:22:23;11.30;;;5.47;;
16737;SDS011;17906;47.684;10.806;2023-04-03T06:24:52;13.77;;;7.03;;
16737;SDS011;17906;47.684;10.806;2023-04-03T06:27:18;19.93;;;9.17;;
16737;SDS011;17906;47.684;10.806;2023-04-03T06:29:45;18.67;;;9.07;;
16737;SDS011;17906;47.684;10.806;2023-04-03T06:32:12;15.07;;;7.50;;
16737;SDS011;17906;47.684;10.806;2023-04-03T06:34:38;14.23;;;7.07;;
16737;SDS011;17906;47.684;10.806;2023-04-03T06:37:05;15.50;;;7.47;;
16737;SDS011;17906;47.684;10.806;2023-04-03T06:39:32;17.27;;;7.97;;
16737;SDS011;17906;47.684;10.806;2023-04-03T06:42:00;16.53;;;7.47;;
16737;SDS011;17906;47.684;10.806;2023-04-03T06:44:26;14.10;;;6.93;;
16737;SDS011;17906;47.684;10.806;2023-04-03T06:46:53;15.20;;;7.13;;
16737;SDS011;17906;47.684;10.806;2023-04-03T06:49:20;19.10;;;8.07;;
16737;SDS011;17906;47.684;10.806;2023-04-03T06:51:47;16.00;;;7.43;;
16737;SDS011;17906;47.684;10.806;2023-04-03T06:54:13;14.73;;;7.23;;
16737;SDS011;17906;47.684;10.806;2023-04-03T06:56:40;16.10;;;7.83;;
16737;SDS011;17906;47.684;10.806;2023-04-03T06:59:08;14.90;;;6.93;;
16737;SDS011;17906;47.684;10.806;2023-04-03T07:01:36;16.77;;;7.70;;
16737;SDS011;17906;47.684;10.806;2023-04-03T07:04:03;16.10;;;8.37;;
16737;SDS011;17906;47.684;10.806;2023-04-03T07:06:30;17.57;;;7.83;;
16737;SDS011;17906;47.684;10.806;2023-04-03T07:08:59;17.53;;;7.73;;
16737;SDS011;17906;47.684;10.806;2023-04-03T07:11:26;20.43;;;7.73;;
16737;SDS011;17906;47.684;10.806;2023-04-03T07:13:53;19.63;;;8.57;;
16737;SDS011;17906;47.684;10.806;2023-04-03T07:16:24;18.77;;;8.57;;
16737;SDS011;17906;47.684;10.806;2023-04-03T07:18:51;16.17;;;8.07;;
16737;SDS011;17906;47.684;10.806;2023-04-03T07:21:17;16.87;;;7.80;;
16737;SDS011;17906;47.684;10.806;2023-04-03T07:23:44;20.47;;;9.37;;
16737;SDS011;17906;47.684;10.806;2023-04-03T07:26:11;17.67;;;8.07;;
16737;SDS011;17906;47.684;10.806;2023-04-03T07:28:37;17.80;;;8.93;;
16737;SDS011;17906;47.684;10.806;2023-04-03T07:31:06;14.87;;;7.47;;
16737;SDS011;17906;47.684;10.806;2023-04-03T07:33:38;12.63;;;6.73;;
16737;SDS011;17906;47.684;10.806;2023-04-03T07:36:06;13.97;;;7.57;;
16737;SDS011;17906;47.684;10.806;2023-04-03T07:38:33;17.50;;;8.87;;
16737;SDS011;17906;47.684;10.806;2023-04-03T07:41:01;18.97;;;8.03;;
16737;SDS011;17906;47.684;10.806;2023-04-03T07:43:28;17.77;;;7.10;;
16737;SDS011;17906;47.684;10.806;2023-04-03T07:45:54;13.17;;;6.57;;
16737;SDS011;17906;47.684;10.806;2023-04-03T07:48:21;14.90;;;6.90;;
16737;SDS011;17906;47.684;10.806;2023-04-03T07:50:51;15.90;;;6.87;;
16737;SDS011;17906;47.684;10.806;2023-04-03T07:53:18;14.20;;;7.03;;
16737;SDS011;17906;47.684;10.806;2023-04-03T07:55:46;19.43;;;9.17;;
16737;SDS011;17906;47.684;10.806;2023-04-03T07:58:14;22.03;;;8.80;;
16737;SDS011;17906;47.684;10.806;2023-04-03T08:00:42;20.87;;;9.40;;
16737;SDS011;17906;47.684;10.806;2023-04-03T08:03:09;14.97;;;7.13;;
16737;SDS011;17906;47.684;10.806;2023-04-03T08:05:37;17.63;;;7.73;;
16737;SDS011;17906;47.684;10.806;2023-04-03T08:08:06;14.83;;;6.73;;
16737;SDS011;17906;47.684;10.806;2023-04-03T08:10:33;14.23;;;7.17;;
16737;SDS011;17906;47.684;10.806;2023-04-03T08:13:00;13.57;;;6.43;;
16737;SDS011;17906;47.684;10.806;2023-04-03T08:15:27;10.20;;;5.97;;
16737;SDS011;17906;47.684;10.806;2023-04-03T08:17:56;13.10;;;6.20;;
16737;SDS011;17906;47.684;10.806;2023-04-03T08:20:22;14.20;;;6.50;;
16737;SDS011;17906;47.684;10.806;2023-04-03T08:22:49;12.10;;;5.50;;
16737;SDS011;17906;47.684;10.806;2023-04-03T08:25:17;12.13;;;5.23;;
16737;SDS011;17906;47.684;10.806;2023-04-03T08:27:44;10.63;;;5.57;;
16737;SDS011;17906;47.684;10.806;2023-04-03T08:30:11;10.90;;;5.33;;
16737;SDS011;17906;47.684;10.806;2023-04-03T08:32:38;16.83;;;7.53;;
16737;SDS011;17906;47.684;10.806;2023-04-03T08:35:07;12.43;;;5.90;;
16737;SDS011;17906;47.684;10.806;2023-04-03T08:37:34;12.27;;;6.43;;
16737;SDS011;17906;47.684;10.806;2023-04-03T08:40:01;9.83;;;5.10;;
16737;SDS011;17906;47.684;10.806;2023-04-03T08:42:34;12.30;;;6.20;;
16737;SDS011;17906;47.684;10.806;2023-04-03T08:45:08;13.23;;;6.13;;
16737;SDS011;17906;47.684;10.806;2023-04-03T08:47:38;11.37;;;5.37;;
16737;SDS011;17906;47.684;10.806;2023-04-03T08:50:11;12.63;;;5.70;;
16737;SDS011;17906;47.684;10.806;2023-04-03T08:52:41;10.97;;;5.60;;
16737;SDS011;17906;47.684;10.806;2023-04-03T08:55:14;11.97;;;5.60;;
16737;SDS011;17906;47.684;10.806;2023-04-03T08:57:50;10.33;;;5.60;;
16737;SDS011;17906;47.684;10.806;2023-04-03T09:00:23;12.37;;;5.80;;
16737;SDS011;17906;47.684;10.806;2023-04-03T09:02:52;10.80;;;5.00;;
16737;SDS011;17906;47.684;10.806;2023-04-03T09:05:24;9.90;;;4.40;;
16737;SDS011;17906;47.684;10.806;2023-04-03T09:08:01;7.47;;;4.33;;
16737;SDS011;17906;47.684;10.806;2023-04-03T09:10:34;10.23;;;4.63;;
16737;SDS011;17906;47.684;10.806;2023-04-03T09:13:06;8.80;;;4.33;;
16737;SDS011;17906;47.684;10.806;2023-04-03T09:15:39;9.40;;;5.17;;
16737;SDS011;17906;47.684;10.806;2023-04-03T09:18:10;7.60;;;4.17;;
16737;SDS011;17906;47.684;10.806;2023-04-03T09:20:43;6.50;;;4.00;;
16737;SDS011;17906;47.684;10.806;2023-04-03T09:23:17;6.13;;;3.50;;
16737;SDS011;17906;47.684;10.806;2023-04-03T09:25:48;8.33;;;4.07;;
16737;SDS011;17906;47.684;10.806;2023-04-03T09:28:18;7.50;;;4.67;;
16737;SDS011;17906;47.684;10.806;2023-04-03T09:30:45;8.60;;;4.70;;
16737;SDS011;17906;47.684;10.806;2023-04-03T09:33:11;14.57;;;7.27;;
16737;SDS011;17906;47.684;10.806;2023-04-03T09:35:40;8.83;;;4.80;;
16737;SDS011;17906;47.684;10.806;2023-04-03T09:38:18;6.30;;;4.00;;
16737;SDS011;17906;47.684;10.806;2023-04-03T09:40:47;7.83;;;5.23;;
16737;SDS011;17906;47.684;10.806;2023-04-03T09:43:22;5.87;;;3.83;;
16737;SDS011;17906;47.684;10.806;2023-04-03T09:45:51;6.77;;;4.00;;
16737;SDS011;17906;47.684;10.806;2023-04-03T09:48:19;6.73;;;4.00;;
16737;SDS011;17906;47.684;10.806;2023-04-03T09:50:57;6.93;;;3.43;;
16737;SDS011;17906;47.684;10.806;2023-04-03T09:53:27;7.27;;;3.83;;
16737;SDS011;17906;47.684;10.806;2023-04-03T09:55:56;5.80;;;3.57;;
16737;SDS011;17906;47.684;10.806;2023-04-03T09:58:26;5.90;;;3.43;;
16737;SDS011;17906;47.684;10.806;2023-04-03T10:00:54;5.40;;;3.13;;
16737;SDS011;17906;47.684;10.806;2023-04-03T10:03:23;4.77;;;2.97;;
16737;SDS011;17906;47.684;10.806;2023-04-03T10:05:53;6.70;;;3.00;;
16737;SDS011;17906;47.684;10.806;2023-04-03T10:08:21;7.37;;;3.37;;
16737;SDS011;17906;47.684;10.806;2023-04-03T10:11:05;4.53;;;3.00;;
16737;SDS011;17906;47.684;10.806;2023-04-03T10:13:50;3.97;;;2.93;;
16737;SDS011;17906;47.684;10.806;2023-04-03T10:16:18;5.70;;;3.27;;
16737;SDS011;17906;47.684;10.806;2023-04-03T10:18:52;4.63;;;2.90;;
16737;SDS011;17906;47.684;10.806;2023-04-03T10:21:29;4.87;;;2.60;;
16737;SDS011;17906;47.684;10.806;2023-04-03T10:24:06;5.43;;;3.23;;
16737;SDS011;17906;47.684;10.806;2023-04-03T10:26:39;8.13;;;3.07;;
16737;SDS011;17906;47.684;10.806;2023-04-03T10:29:16;4.53;;;2.80;;
16737;SDS011;17906;47.684;10.806;2023-04-03T10:31:55;4.93;;;3.20;;
16737;SDS011;17906;47.684;10.806;2023-04-03T10:34:29;5.23;;;3.00;;
16737;SDS011;17906;47.684;10.806;2023-04-03T10:37:01;4.40;;;2.80;;
16737;SDS011;17906;47.684;10.806;2023-04-03T10:39:39;4.30;;;2.87;;
16737;SDS011;17906;47.684;10.806;2023-04-03T10:42:15;5.93;;;3.10;;
16737;SDS011;17906;47.684;10.806;2023-04-03T10:44:55;6.43;;;3.73;;
16737;SDS011;17906;47.684;10.806;2023-04-03T10:47:30;7.00;;;3.57;;
16737;SDS011;17906;47.684;10.806;2023-04-03T10:50:06;4.97;;;3.00;;
16737;SDS011;17906;47.684;10.806;2023-04-03T10:52:50;6.50;;;3.47;;
16737;SDS011;17906;47.684;10.806;2023-04-03T10:55:24;4.07;;;2.67;;
16737;SDS011;17906;47.684;10.806;2023-04-03T10:57:58;5.63;;;3.00;;
16737;SDS011;17906;47.684;10.806;2023-04-03T11:00:30;5.53;;;3.10;;
16737;SDS011;17906;47.684;10.806;2023-04-03T11:03:03;6.17;;;2.80;;
16737;SDS011;17906;47.684;10.806;2023-04-03T11:05:36;7.50;;;3.30;;
16737;SDS011;17906;47.684;10.806;2023-04-03T11:08:10;5.00;;;2.80;;
16737;SDS011;17906;47.684;10.806;2023-04-03T11:10:44;5.07;;;2.80;;
16737;SDS011;17906;47.684;10.806;2023-04-03T11:13:15;5.47;;;2.80;;
16737;SDS011;17906;47.684;10.806;2023-04-03T11:15:48;4.67;;;2.70;;
16737;SDS011;17906;47.684;10.806;2023-04-03T11:18:18;6.73;;;2.77;;
16737;SDS011;17906;47.684;10.806;2023-04-03T11:20:51;5.77;;;2.93;;
16737;SDS011;17906;47.684;10.806;2023-04-03T11:23:26;3.27;;;2.10;;
16737;SDS011;17906;47.684;10.806;2023-04-03T11:25:58;3.63;;;2.50;;
16737;SDS011;17906;47.684;10.806;2023-04-03T11:28:33;4.87;;;2.70;;
16737;SDS011;17906;47.684;10.806;2023-04-03T11:31:05;7.93;;;3.80;;
16737;SDS011;17906;47.684;10.806;2023-04-03T11:33:42;12.17;;;4.73;;
16737;SDS011;17906;47.684;10.806;2023-04-03T11:36:18;5.77;;;3.20;;
16737;SDS011;17906;47.684;10.806;2023-04-03T11:38:56;5.57;;;3.20;;
16737;SDS011;17906;47.684;10.806;2023-04-03T11:41:26;5.30;;;2.97;;
16737;SDS011;17906;47.684;10.806;2023-04-03T11:43:55;4.03;;;2.63;;
16737;SDS011;17906;47.684;10.806;2023-04-03T11:58:11;4.50;;;2.60;;
16737;SDS011;17906;47.684;10.806;2023-04-03T12:00:51;5.63;;;3.17;;
16737;SDS011;17906;47.684;10.806;2023-04-03T12:12:55;9.20;;;4.00;;
16737;SDS011;17906;47.684;10.806;2023-04-03T12:18:39;8.97;;;4.40;;
16737;SDS011;17906;47.684;10.806;2023-04-03T12:21:08;7.07;;;3.60;;
16737;SDS011;17906;47.684;10.806;2023-04-03T12:23:37;10.03;;;4.87;;
16737;SDS011;17906;47.684;10.806;2023-04-03T12:26:24;7.77;;;4.70;;
16737;SDS011;17906;47.684;10.806;2023-04-03T12:28:53;9.33;;;3.60;;
16737;SDS011;17906;47.684;10.806;2023-04-03T12:31:20;6.97;;;3.70;;
16737;SDS011;17906;47.684;10.806;2023-04-03T12:34:00;6.33;;;3.73;;
16737;SDS011;17906;47.684;10.806;2023-04-03T12:36:37;6.07;;;3.33;;
16737;SDS011;17906;47.684;10.806;2023-04-03T12:39:18;7.63;;;4.00;;
16737;SDS011;17906;47.684;10.806;2023-04-03T12:42:17;8.57;;;4.17;;
16737;SDS011;17906;47.684;10.806;2023-04-03T12:44:55;4.97;;;2.80;;
16737;SDS011;17906;47.684;10.806;2023-04-03T12:47:29;5.20;;;3.00;;
16737;SDS011;17906;47.684;10.806;2023-04-03T12:50:01;14.87;;;6.03;;
16737;SDS011;17906;47.684;10.806;2023-04-03T12:52:33;15.57;;;6.77;;
16737;SDS011;17906;47.684;10.806;2023-04-03T12:55:12;6.60;;;3.63;;
16737;SDS011;17906;47.684;10.806;2023-04-03T12:57:41;6.40;;;3.23;;
16737;SDS011;17906;47.684;10.806;2023-04-03T13:00:21;5.47;;;3.10;;
16737;SDS011;17906;47.684;10.806;2023-04-03T13:02:52;6.20;;;3.87;;
16737;SDS011;17906;47.684;10.806;2023-04-03T13:05:19;10.97;;;5.03;;
16737;SDS011;17906;47.684;10.806;2023-04-03T13:07:48;9.00;;;4.63;;
16737;SDS011;17906;47.684;10.806;2023-04-03T13:10:19;11.93;;;6.03;;
16737;SDS011;17906;47.684;10.806;2023-04-03T13:12:48;7.27;;;4.00;;
16737;SDS011;17906;47.684;10.806;2023-04-03T13:15:18;5.67;;;3.53;;
16737;SDS011;17906;47.684;10.806;2023-04-03T13:17:46;8.20;;;4.00;;
16737;SDS011;17906;47.684;10.806;2023-04-03T13:20:18;10.83;;;3.80;;
16737;SDS011;17906;47.684;10.806;2023-04-03T13:22:48;7.70;;;4.00;;
16737;SDS011;17906;47.684;10.806;2023-04-03T13:25:21;9.47;;;4.93;;
16737;SDS011;17906;47.684;10.806;2023-04-03T13:27:50;8.50;;;4.20;;
16737;SDS011;17906;47.684;10.806;2023-04-03T13:30:19;10.03;;;5.33;;
16737;SDS011;17906;47.684;10.806;2023-04-03T13:32:49;10.53;;;5.07;;
16737;SDS011;17906;47.684;10.806;2023-04-03T13:38:20;11.40;;;5.57;;
16737;SDS011;17906;47.684;10.806;2023-04-03T13:40:51;10.73;;;5.97;;
16737;SDS011;17906;47.684;10.806;2023-04-03T13:43:20;9.27;;;5.33;;
16737;SDS011;17906;47.684;10.806;2023-04-03T13:48:50;5.97;;;3.70;;
16737;SDS011;17906;47.684;10.806;2023-04-03T13:51:20;7.43;;;3.90;;
16737;SDS011;17906;47.684;10.806;2023-04-03T13:53:50;6.07;;;3.73;;
16737;SDS011;17906;47.684;10.806;2023-04-03T13:56:25;7.93;;;4.03;;
16737;SDS011;17906;47.684;10.806;2023-04-03T13:58:57;8.03;;;4.00;;
16737;SDS011;17906;47.684;10.806;2023-04-03T14:01:32;5.37;;;3.23;;
16737;SDS011;17906;47.684;10.806;2023-04-03T14:04:09;7.27;;;3.50;;
16737;SDS011;17906;47.684;10.806;2023-04-03T14:06:39;5.53;;;3.47;;
16737;SDS011;17906;47.684;10.806;2023-04-03T14:09:06;6.80;;;3.73;;
16737;SDS011;17906;47.684;10.806;2023-04-03T14:11:34;5.33;;;3.47;;
16737;SDS011;17906;47.684;10.806;2023-04-03T14:14:02;5.87;;;3.90;;
16737;SDS011;17906;47.684;10.806;2023-04-03T14:16:33;5.10;;;3.33;;
16737;SDS011;17906;47.684;10.806;2023-04-03T14:19:04;9.50;;;4.00;;
16737;SDS011;17906;47.684;10.806;2023-04-03T14:21:31;8.63;;;3.67;;
16737;SDS011;17906;47.684;10.806;2023-04-03T14:23:57;7.93;;;4.03;;
16737;SDS011;17906;47.684;10.806;2023-04-03T14:26:24;7.00;;;3.97;;
16737;SDS011;17906;47.684;10.806;2023-04-03T14:28:53;5.73;;;3.20;;
16737;SDS011;17906;47.684;10.806;2023-04-03T14:31:21;7.97;;;3.97;;
16737;SDS011;17906;47.684;10.806;2023-04-03T14:33:49;6.40;;;3.20;;
16737;SDS011;17906;47.684;10.806;2023-04-03T14:36:17;6.67;;;3.80;;
16737;SDS011;17906;47.684;10.806;2023-04-03T14:38:46;14.77;;;5.60;;
16737;SDS011;17906;47.684;10.806;2023-04-03T14:41:15;9.83;;;3.80;;
16737;SDS011;17906;47.684;10.806;2023-04-03T14:43:44;8.63;;;3.73;;
16737;SDS011;17906;47.684;10.806;2023-04-03T14:46:14;14.47;;;6.10;;
16737;SDS011;17906;47.684;10.806;2023-04-03T14:48:42;15.23;;;6.63;;
16737;SDS011;17906;47.684;10.806;2023-04-03T14:51:10;9.90;;;5.13;;
16737;SDS011;17906;47.684;10.806;2023-04-03T14:53:38;10.17;;;5.07;;
16737;SDS011;17906;47.684;10.806;2023-04-03T14:56:10;9.50;;;4.53;;
16737;SDS011;17906;47.684;10.806;2023-04-03T14:58:37;8.23;;;3.70;;
16737;SDS011;17906;47.684;10.806;2023-04-03T15:01:04;5.33;;;3.23;;
16737;SDS011;17906;47.684;10.806;2023-04-03T15:03:32;11.73;;;5.93;;
16737;SDS011;17906;47.684;10.806;2023-04-03T15:05:58;5.33;;;3.30;;
16737;SDS011;17906;47.684;10.806;2023-04-03T15:08:25;14.30;;;6.33;;
16737;SDS011;17906;47.684;10.806;2023-04-03T15:10:55;10.63;;;5.87;;